Time;durP1;ratioP1;P1;durP2;ratioP2;P2;SDS_P1;SDS_P2;PMS_P1;PMS_P2;Temp;Humidity;BMP_temperature;BMP_pressure;BME280_temperature;BME280_humidity;BME280_pressure;Samples;Min_cycle;Max_cycle;Signal;HPM_P1;HPM_P2
2022/04/25 00:01:27;;;;;;;18.40;9.35;;;7.40;99.90;;;;;;5107448;28;20043;-75
2022/04/25 00:03:52;;;;;;;17.15;8.32;;;7.40;99.90;;;;;;5113403;28;20039;-75
2022/04/25 00:06:18;;;;;;;18.20;7.78;;;7.40;99.90;;;;;;5099073;28;20051;-76
2022/04/25 00:08:44;;;;;;;20.20;8.40;;;7.40;99.90;;;;;;5091894;28;20040;-76
2022/04/25 00:11:10;;;;;;;14.88;8.82;;;7.40;99.90;;;;;;5091850;28;20044;-75
2022/04/25 00:13:36;;;;;;;14.60;8.65;;;7.40;99.90;;;;;;5091171;28;20036;-76
2022/04/25 00:16:02;;;;;;;16.48;9.13;;;7.40;99.90;;;;;;5092153;28;20372;-75
2022/04/25 00:18:29;;;;;;;14.55;7.95;;;7.30;99.90;;;;;;5092146;28;20109;-76
2022/04/25 00:20:55;;;;;;;16.05;8.50;;;7.40;99.90;;;;;;5091568;28;20492;-76
2022/04/25 00:23:22;;;;;;;14.50;8.20;;;7.40;99.90;;;;;;5092634;28;20066;-76
2022/04/25 00:25:48;;;;;;;22.23;9.43;;;7.40;99.90;;;;;;5100977;28;20470;-76
2022/04/25 00:28:14;;;;;;;17.38;8.50;;;7.50;99.90;;;;;;5112279;28;20055;-76
2022/04/25 00:30:39;;;;;;;14.45;9.00;;;7.50;99.90;;;;;;5114785;28;20040;-76
2022/04/25 00:33:05;;;;;;;15.90;8.45;;;7.50;99.90;;;;;;5114964;28;20050;-76
2022/04/25 00:35:31;;;;;;;13.73;8.40;;;7.50;99.90;;;;;;5116096;28;20044;-76
2022/04/25 00:37:57;;;;;;;17.60;8.98;;;7.60;99.90;;;;;;5115651;28;20082;-76
2022/04/25 00:40:24;;;;;;;14.52;8.63;;;7.60;99.90;;;;;;5113199;28;20048;-76
2022/04/25 00:42:51;;;;;;;19.17;9.68;;;7.70;99.90;;;;;;5098526;28;20054;-76
2022/04/25 00:45:18;;;;;;;15.70;8.88;;;7.70;99.90;;;;;;5114897;28;20051;-76
2022/04/25 00:47:45;;;;;;;14.13;8.00;;;7.70;99.90;;;;;;5094425;28;20048;-76
2022/04/25 00:50:13;;;;;;;14.30;9.27;;;7.70;99.90;;;;;;5095130;28;20044;-76
2022/04/25 00:52:39;;;;;;;13.02;8.60;;;7.70;99.90;;;;;;5115139;28;20482;-76
2022/04/25 00:55:08;;;;;;;15.52;8.63;;;7.70;99.90;;;;;;5116021;28;20079;-75
2022/04/25 00:57:35;;;;;;;13.45;7.95;;;7.70;99.90;;;;;;5114287;28;20093;-76
2022/04/25 01:00:03;;;;;;;16.05;9.75;;;7.60;99.90;;;;;;5081354;28;20134;-76
2022/04/25 01:02:29;;;;;;;18.13;9.35;;;7.60;99.90;;;;;;5096563;28;20479;-76
2022/04/25 01:04:55;;;;;;;18.38;9.70;;;7.60;99.90;;;;;;5094616;28;20051;-75
2022/04/25 01:07:21;;;;;;;19.70;8.65;;;7.60;99.90;;;;;;5094602;28;20048;-76
2022/04/25 01:09:47;;;;;;;13.55;9.27;;;7.60;99.90;;;;;;5096370;28;20394;-76
2022/04/25 01:12:13;;;;;;;14.23;9.10;;;7.60;99.90;;;;;;5104450;28;20035;-76
2022/04/25 01:14:39;;;;;;;17.08;8.52;;;7.60;99.90;;;;;;5112972;28;20036;-76
2022/04/25 01:17:06;;;;;;;14.07;9.25;;;7.60;99.90;;;;;;5114770;28;20039;-76
2022/04/25 01:19:32;;;;;;;14.07;8.55;;;7.60;99.90;;;;;;5109320;28;20491;-76
2022/04/25 01:22:09;;;;;;;17.75;9.40;;;7.70;99.90;;;;;;5093606;28;20047;-76
2022/04/25 01:27:19;;;;;;;20.92;10.05;;;7.60;99.90;;;;;;5114605;28;20048;-76
2022/04/25 01:29:47;;;;;;;19.42;10.10;;;7.70;99.90;;;;;;5106535;28;20127;-76
2022/04/25 01:32:14;;;;;;;17.75;9.45;;;7.70;99.90;;;;;;5094235;28;20052;-76
2022/04/25 01:34:40;;;;;;;19.05;9.05;;;7.70;99.90;;;;;;5095092;28;20036;-75
2022/04/25 01:37:11;;;;;;;16.95;10.43;;;7.70;99.90;;;;;;5092788;28;20036;-76
2022/04/25 01:39:42;;;;;;;20.88;10.52;;;7.60;99.90;;;;;;5098384;28;20035;-76
2022/04/25 01:42:08;;;;;;;19.55;10.27;;;7.60;99.90;;;;;;5114419;28;20116;-76
2022/04/25 01:44:35;;;;;;;20.17;8.98;;;7.50;99.90;;;;;;5110481;28;20036;-76
2022/04/25 01:47:02;;;;;;;25.92;10.85;;;7.50;99.90;;;;;;5095308;28;20105;-76
2022/04/25 01:49:28;;;;;;;16.65;9.80;;;7.50;99.90;;;;;;5095012;28;20122;-76
2022/04/25 01:51:54;;;;;;;17.08;9.60;;;7.50;99.90;;;;;;5092603;28;20098;-76
2022/04/25 01:54:25;;;;;;;18.73;8.57;;;7.50;99.90;;;;;;5093790;28;20452;-76
2022/04/25 01:56:52;;;;;;;13.98;9.88;;;7.40;99.90;;;;;;5094360;28;20047;-76
2022/04/25 01:59:18;;;;;;;18.80;9.43;;;7.40;99.90;;;;;;5102432;28;20459;-76
2022/04/25 02:01:44;;;;;;;23.13;9.88;;;7.40;99.90;;;;;;5114147;28;20143;-76
2022/04/25 02:04:10;;;;;;;13.57;8.57;;;7.30;99.90;;;;;;5112419;28;20039;-76
2022/04/25 02:06:36;;;;;;;14.80;9.65;;;7.30;99.90;;;;;;5115215;28;20056;-76
2022/04/25 02:09:02;;;;;;;14.65;10.75;;;7.20;99.90;;;;;;5109191;28;20044;-76
2022/04/25 02:11:30;;;;;;;17.52;10.02;;;7.20;99.90;;;;;;5093910;28;20126;-76
2022/04/25 02:13:57;;;;;;;18.30;10.55;;;7.10;99.90;;;;;;5093457;28;20054;-76
2022/04/25 02:16:24;;;;;;;13.35;9.48;;;7.10;99.90;;;;;;5093370;28;20090;-77
2022/04/25 02:18:51;;;;;;;17.70;9.18;;;7.10;99.90;;;;;;5095891;28;20116;-76
2022/04/25 02:21:17;;;;;;;14.95;9.23;;;7.10;99.90;;;;;;5115476;28;20126;-76
2022/04/25 02:23:43;;;;;;;17.00;9.77;;;7.00;99.90;;;;;;5113520;28;20047;-76
2022/04/25 02:26:09;;;;;;;18.48;9.45;;;7.00;99.90;;;;;;5093831;28;20146;-76
2022/04/25 02:28:36;;;;;;;15.68;9.68;;;6.90;99.90;;;;;;5100985;28;20047;-75
2022/04/25 02:31:04;;;;;;;18.92;10.35;;;6.90;99.90;;;;;;5113801;28;20043;-76
2022/04/25 02:33:31;;;;;;;19.40;10.10;;;6.90;99.90;;;;;;5112625;28;20067;-76
2022/04/25 02:35:56;;;;;;;19.45;10.50;;;6.80;99.90;;;;;;5114469;28;20153;-76
2022/04/25 02:38:22;;;;;;;17.27;10.18;;;6.90;99.90;;;;;;5128811;27;20131;-76
2022/04/25 02:41:04;;;;;;;18.05;10.75;;;6.80;99.90;;;;;;5104008;28;20048;-75
2022/04/25 02:43:36;;;;;;;20.00;10.60;;;6.80;99.90;;;;;;5098069;28;20184;-76
2022/04/25 02:46:03;;;;;;;14.82;9.48;;;6.80;99.90;;;;;;5113161;28;20043;-76
2022/04/25 02:48:34;;;;;;;19.10;9.13;;;6.80;99.90;;;;;;5107106;28;20044;-76
2022/04/25 02:51:00;;;;;;;16.85;9.32;;;6.80;99.90;;;;;;5093731;28;20050;-76
2022/04/25 02:53:25;;;;;;;17.90;9.38;;;6.80;99.90;;;;;;5094237;28;20159;-75
2022/04/25 02:55:53;;;;;;;19.33;9.88;;;6.80;99.90;;;;;;5092616;28;20123;-76
2022/04/25 02:58:20;;;;;;;16.83;9.75;;;6.70;99.90;;;;;;5107621;28;20055;-76
2022/04/25 03:00:47;;;;;;;18.38;10.50;;;6.70;99.90;;;;;;5113353;28;20055;-75
2022/04/25 03:03:17;;;;;;;20.17;8.73;;;6.70;99.90;;;;;;5111218;28;20039;-76
2022/04/25 03:05:45;;;;;;;20.23;9.55;;;6.70;99.90;;;;;;5095912;28;20058;-76
2022/04/25 03:08:12;;;;;;;18.77;10.00;;;6.60;99.90;;;;;;5098723;28;20044;-76
2022/04/25 03:10:38;;;;;;;19.67;8.90;;;6.60;99.90;;;;;;5107375;28;20108;-75
2022/04/25 03:13:07;;;;;;;14.10;9.55;;;6.60;99.90;;;;;;5114168;28;20118;-76
2022/04/25 03:15:37;;;;;;;11.38;8.80;;;6.60;99.90;;;;;;5111117;28;20051;-75
2022/04/25 03:18:03;;;;;;;17.90;9.60;;;6.60;99.90;;;;;;5114057;28;20039;-76
2022/04/25 03:20:28;;;;;;;17.00;9.23;;;6.60;99.90;;;;;;5111124;28;20454;-76
2022/04/25 03:22:58;;;;;;;17.45;10.23;;;6.50;99.90;;;;;;5111879;28;20043;-76
2022/04/25 03:25:24;;;;;;;16.42;9.20;;;6.50;99.90;;;;;;5085925;28;20036;-76
2022/04/25 03:27:50;;;;;;;15.60;9.18;;;6.50;99.90;;;;;;5092611;28;20051;-75
2022/04/25 03:30:16;;;;;;;11.48;8.45;;;6.50;99.90;;;;;;5098608;28;20398;-75
2022/04/25 03:32:46;;;;;;;17.67;8.95;;;6.50;99.90;;;;;;5113744;28;20039;-76
2022/04/25 03:35:17;;;;;;;16.30;9.23;;;6.50;99.90;;;;;;5106911;28;20036;-76
2022/04/25 03:37:44;;;;;;;15.18;8.95;;;6.50;99.90;;;;;;5092233;28;20105;-75
2022/04/25 03:40:11;;;;;;;17.88;9.40;;;6.50;99.90;;;;;;5096341;28;20127;-75
2022/04/25 03:42:41;;;;;;;20.13;9.65;;;6.50;99.90;;;;;;5111630;28;20463;-76
2022/04/25 03:45:09;;;;;;;18.67;10.07;;;6.50;99.90;;;;;;5110909;28;20067;-76
2022/04/25 03:47:41;;;;;;;14.75;8.55;;;6.50;99.90;;;;;;5113895;28;20039;-76
2022/04/25 03:50:08;;;;;;;16.40;8.80;;;6.50;99.90;;;;;;5104700;28;20044;-75
2022/04/25 03:52:35;;;;;;;16.73;9.25;;;6.50;99.90;;;;;;5091787;28;20055;-75
2022/04/25 03:57:53;;;;;;;18.65;9.57;;;6.60;99.90;;;;;;5112694;28;20048;-76
2022/04/25 04:00:20;;;;;;;11.27;8.20;;;6.70;99.90;;;;;;5102669;28;20105;-76
2022/04/25 04:02:45;;;;;;;18.80;9.30;;;6.60;99.90;;;;;;5095992;28;20135;-76
2022/04/25 04:05:12;;;;;;;18.13;8.63;;;6.70;99.90;;;;;;5094999;28;20127;-76
2022/04/25 04:07:38;;;;;;;15.65;8.98;;;6.70;99.90;;;;;;5097195;28;20040;-76
2022/04/25 04:10:05;;;;;;;10.80;8.35;;;6.80;99.90;;;;;;5095998;28;20052;-76
2022/04/25 04:12:31;;;;;;;16.48;9.13;;;6.80;99.90;;;;;;5094855;28;20495;-76
2022/04/25 04:14:58;;;;;;;11.35;8.45;;;6.90;99.90;;;;;;5105996;28;20398;-76
2022/04/25 04:17:25;;;;;;;14.82;8.68;;;6.90;99.90;;;;;;5117423;28;20047;-76
2022/04/25 04:19:53;;;;;;;12.50;8.07;;;6.90;99.90;;;;;;5107897;28;20036;-76
2022/04/25 04:22:21;;;;;;;13.88;8.35;;;7.00;99.90;;;;;;5095464;28;20052;-76
2022/04/25 04:24:48;;;;;;;12.27;7.65;;;7.00;99.90;;;;;;5101263;28;20043;-76
2022/04/25 04:27:14;;;;;;;14.00;7.60;;;7.10;99.90;;;;;;5111251;28;20534;-76
2022/04/25 04:29:41;;;;;;;17.17;7.63;;;7.10;99.90;;;;;;5099566;28;20127;-76
2022/04/25 04:32:08;;;;;;;13.95;7.88;;;7.20;99.90;;;;;;5112556;28;20047;-76
2022/04/25 04:34:35;;;;;;;12.02;7.75;;;7.20;99.90;;;;;;5128227;27;20103;-76
2022/04/25 04:37:02;;;;;;;12.90;7.00;;;7.30;99.90;;;;;;5115537;28;20051;-77
2022/04/25 04:39:29;;;;;;;12.82;7.25;;;7.30;99.90;;;;;;5113417;28;20035;-76
2022/04/25 04:41:55;;;;;;;15.30;7.80;;;7.30;99.90;;;;;;5112999;28;20515;-77
2022/04/25 04:44:21;;;;;;;11.75;7.80;;;7.40;99.90;;;;;;5115529;28;20043;-76
2022/04/25 04:46:47;;;;;;;16.52;8.48;;;7.40;99.90;;;;;;5114688;28;20368;-77
2022/04/25 04:49:13;;;;;;;15.32;8.38;;;7.40;99.90;;;;;;5115297;28;20043;-77
2022/04/25 04:51:39;;;;;;;17.45;8.70;;;7.50;99.90;;;;;;5115176;28;20060;-77
2022/04/25 04:54:04;;;;;;;13.10;8.50;;;7.50;99.90;;;;;;5095328;28;20072;-77
2022/04/25 04:56:31;;;;;;;12.32;8.25;;;7.50;99.90;;;;;;5112189;28;20048;-77
2022/04/25 04:58:58;;;;;;;20.25;8.98;;;7.50;99.90;;;;;;5096524;28;20505;-77
2022/04/25 05:01:24;;;;;;;14.68;7.95;;;7.50;99.90;;;;;;5095032;28;20036;-77
2022/04/25 05:03:50;;;;;;;12.60;7.97;;;7.50;99.90;;;;;;5095881;28;20043;-77
2022/04/25 05:06:16;;;;;;;13.88;8.48;;;7.50;99.90;;;;;;5094926;28;20480;-77
2022/04/25 05:08:42;;;;;;;12.27;7.90;;;7.50;99.90;;;;;;5093580;28;20044;-77
2022/04/25 05:11:09;;;;;;;15.35;8.38;;;7.50;99.90;;;;;;5093481;28;20214;-77
2022/04/25 05:13:36;;;;;;;15.30;8.23;;;7.50;99.90;;;;;;5094451;28;20044;-77
2022/04/25 05:16:03;;;;;;;13.48;8.35;;;7.50;99.90;;;;;;5104387;28;20372;-76
2022/04/25 05:18:32;;;;;;;14.18;7.63;;;7.50;99.90;;;;;;5116305;28;20116;-77
2022/04/25 05:20:58;;;;;;;15.98;7.95;;;7.60;99.90;;;;;;5105399;28;20044;-77
2022/04/25 05:23:25;;;;;;;16.67;7.80;;;7.60;99.90;;;;;;5095795;28;20062;-77
2022/04/25 05:25:50;;;;;;;16.77;9.30;;;7.60;99.90;;;;;;5095328;28;20105;-76
2022/04/25 05:28:16;;;;;;;10.95;8.20;;;7.60;99.90;;;;;;5076665;28;20044;-76
2022/04/25 05:30:44;;;;;;;16.83;8.40;;;7.60;99.90;;;;;;5097829;28;20043;-76
2022/04/25 05:33:10;;;;;;;13.45;7.88;;;7.60;99.90;;;;;;5112670;28;20103;-77
2022/04/25 05:35:37;;;;;;;14.68;7.30;;;7.60;99.90;;;;;;5115061;28;20084;-77
2022/04/25 05:38:06;;;;;;;12.25;7.30;;;7.60;99.90;;;;;;5111392;28;20097;-76
2022/04/25 05:40:32;;;;;;;14.35;7.50;;;7.60;99.90;;;;;;5111356;28;20083;-77
2022/04/25 05:43:02;;;;;;;13.57;8.38;;;7.60;99.90;;;;;;5105764;28;20514;-76
2022/04/25 05:45:27;;;;;;;18.48;9.55;;;7.60;99.90;;;;;;5113106;28;20181;-77
2022/04/25 05:47:55;;;;;;;20.50;9.23;;;7.60;99.90;;;;;;5102985;28;20134;-77
2022/04/25 05:53:06;;;;;;;18.05;8.70;;;7.60;99.90;;;;;;5092750;28;20048;-77
2022/04/25 05:55:32;;;;;;;16.05;7.88;;;7.60;99.90;;;;;;5094692;28;20149;-77
2022/04/25 05:58:01;;;;;;;19.17;9.05;;;7.60;99.90;;;;;;5092299;28;20181;-76
2022/04/25 06:00:27;;;;;;;11.10;8.00;;;7.60;99.90;;;;;;5093508;28;20119;-77
2022/04/25 06:02:55;;;;;;;13.77;8.55;;;7.60;99.90;;;;;;5093629;28;20483;-77
2022/04/25 06:05:20;;;;;;;17.98;10.23;;;7.60;99.90;;;;;;5093873;28;20044;-76
2022/04/25 06:07:48;;;;;;;16.55;8.32;;;7.60;99.90;;;;;;5093222;28;20052;-76
2022/04/25 06:10:19;;;;;;;13.35;8.60;;;7.60;99.90;;;;;;5093316;28;20040;-76
2022/04/25 06:12:48;;;;;;;13.23;8.43;;;7.60;99.90;;;;;;5107104;28;20494;-76
2022/04/25 06:15:18;;;;;;;14.52;9.00;;;7.60;99.90;;;;;;5112504;28;20122;-77
2022/04/25 06:17:44;;;;;;;18.38;8.63;;;7.60;99.90;;;;;;5099176;28;20047;-76
2022/04/25 06:20:10;;;;;;;18.02;7.85;;;7.60;99.90;;;;;;5105702;28;20035;-76
2022/04/25 06:22:37;;;;;;;14.65;8.52;;;7.70;99.90;;;;;;5096175;28;20039;-77
2022/04/25 06:25:05;;;;;;;15.75;9.02;;;7.70;99.90;;;;;;5083756;28;20048;-77
2022/04/25 06:27:31;;;;;;;13.88;8.60;;;7.60;99.90;;;;;;5106610;28;20075;-77
2022/04/25 06:29:57;;;;;;;12.32;7.53;;;7.70;99.90;;;;;;5107512;28;20047;-76
2022/04/25 06:32:24;;;;;;;16.38;7.88;;;7.70;99.90;;;;;;5119051;27;20047;-76
2022/04/25 06:34:50;;;;;;;13.20;7.68;;;7.70;99.90;;;;;;5135152;27;20049;-77
2022/04/25 06:37:16;;;;;;;13.88;7.60;;;7.70;99.90;;;;;;5110578;27;20092;-76
2022/04/25 06:39:42;;;;;;;13.73;7.85;;;7.70;99.90;;;;;;5108563;27;20036;-76
2022/04/25 06:42:10;;;;;;;15.20;7.72;;;7.70;99.90;;;;;;5075572;28;20070;-77
2022/04/25 06:44:37;;;;;;;18.30;8.82;;;7.70;99.90;;;;;;5093058;28;20135;-77
2022/04/25 06:47:03;;;;;;;15.90;7.72;;;7.80;99.90;;;;;;5128740;27;20054;-76
2022/04/25 06:49:29;;;;;;;20.23;7.85;;;7.80;99.90;;;;;;5105513;28;20044;-77
2022/04/25 06:51:58;;;;;;;13.77;7.82;;;7.90;99.90;;;;;;5083043;28;20052;-77
2022/04/25 06:54:25;;;;;;;13.52;8.43;;;7.90;99.90;;;;;;5089099;28;20105;-77
2022/04/25 06:56:53;;;;;;;20.73;8.20;;;7.90;99.90;;;;;;5091648;28;20097;-77
2022/04/25 06:59:20;;;;;;;19.13;8.30;;;8.00;99.90;;;;;;5091295;28;20060;-77
2022/04/25 07:01:47;;;;;;;18.08;8.10;;;8.00;99.90;;;;;;5111310;28;20138;-76
2022/04/25 07:04:13;;;;;;;13.98;7.78;;;8.00;99.90;;;;;;5110397;28;20046;-77
2022/04/25 07:06:39;;;;;;;14.68;7.28;;;8.00;99.90;;;;;;5108546;28;20051;-76
2022/04/25 07:09:12;;;;;;;10.82;8.02;;;8.00;99.90;;;;;;5094471;28;20044;-76
2022/04/25 07:11:43;;;;;;;14.95;8.13;;;8.10;99.90;;;;;;5092656;28;20048;-77
2022/04/25 07:14:17;;;;;;;14.93;7.18;;;8.10;99.90;;;;;;5091475;28;20051;-77
2022/04/25 07:16:44;;;;;;;12.57;8.35;;;8.10;99.90;;;;;;5093579;28;20040;-76
2022/04/25 07:19:11;;;;;;;13.40;8.27;;;8.10;99.90;;;;;;5093213;28;20119;-77
2022/04/25 07:29:52;;;;;;;16.52;8.32;;;8.20;99.90;;;;;;5112737;28;20044;-77
2022/04/25 07:32:20;;;;;;;16.15;9.48;;;8.20;99.90;;;;;;5092388;28;20487;-76
2022/04/25 07:34:48;;;;;;;15.65;8.77;;;8.20;99.90;;;;;;5094386;28;20146;-77
2022/04/25 07:37:16;;;;;;;14.52;8.27;;;8.30;99.90;;;;;;5112952;27;20567;-77
2022/04/25 07:39:42;;;;;;;16.73;9.55;;;8.30;99.90;;;;;;5096534;28;20044;-77
2022/04/25 07:42:09;;;;;;;11.02;8.30;;;8.30;99.90;;;;;;5102232;28;20056;-77
2022/04/25 07:44:35;;;;;;;14.02;8.02;;;8.30;99.90;;;;;;5133872;27;20126;-76
2022/04/25 07:47:01;;;;;;;13.13;7.75;;;8.40;99.90;;;;;;5100109;28;20055;-77
2022/04/25 07:49:30;;;;;;;14.77;9.05;;;8.40;99.90;;;;;;5102062;28;20079;-77
2022/04/25 07:51:56;;;;;;;16.50;9.10;;;8.40;99.90;;;;;;5114136;28;20051;-77
2022/04/25 07:54:22;;;;;;;12.38;8.55;;;8.40;99.90;;;;;;5103074;28;20044;-76
2022/04/25 07:56:48;;;;;;;13.70;7.82;;;8.40;99.90;;;;;;5096328;28;20112;-76
2022/04/25 07:59:15;;;;;;;15.32;7.88;;;8.40;99.90;;;;;;5095918;28;20487;-76
2022/04/25 08:01:45;;;;;;;13.63;7.47;;;8.40;99.90;;;;;;5111296;28;20047;-77
2022/04/25 08:04:11;;;;;;;11.88;7.68;;;8.40;99.90;;;;;;5114505;28;20040;-77
2022/04/25 08:06:38;;;;;;;10.52;8.32;;;8.40;99.90;;;;;;5132774;27;20055;-76
2022/04/25 08:09:05;;;;;;;14.25;8.55;;;8.30;99.90;;;;;;5105934;28;20044;-76
2022/04/25 08:11:34;;;;;;;13.40;8.93;;;8.40;99.90;;;;;;5095038;28;20516;-76
2022/04/25 08:19:22;;;;;;;15.95;10.70;;;8.40;99.90;;;;;;5096944;28;20044;-77
2022/04/25 08:21:54;;;;;;;16.05;8.05;;;8.50;99.90;;;;;;5096744;28;20499;-76
2022/04/25 08:24:24;;;;;;;14.10;8.60;;;8.60;99.90;;;;;;5103919;28;20036;-77
2022/04/25 08:26:55;;;;;;;14.32;8.70;;;8.70;99.90;;;;;;5114266;28;20100;-76
2022/04/25 08:29:22;;;;;;;16.02;8.00;;;8.70;99.90;;;;;;5115280;28;20636;-76
2022/04/25 08:31:49;;;;;;;18.80;9.07;;;8.70;99.90;;;;;;5118751;27;20118;-77
2022/04/25 08:34:15;;;;;;;19.13;8.85;;;8.80;99.90;;;;;;5115505;28;20047;-77
2022/04/25 08:36:41;;;;;;;18.60;8.70;;;8.70;99.90;;;;;;5117069;28;20043;-76
2022/04/25 08:39:07;;;;;;;16.27;8.85;;;8.80;99.90;;;;;;5114815;28;20409;-77
2022/04/25 08:41:59;;;;;;;13.60;8.52;;;8.80;99.90;;;;;;5116791;28;20147;-77
2022/04/25 08:44:25;;;;;;;17.25;9.35;;;8.80;99.90;;;;;;5116438;28;20039;-76
2022/04/25 08:46:55;;;;;;;14.23;8.75;;;8.90;99.90;;;;;;5114480;28;20501;-77
2022/04/25 08:49:21;;;;;;;15.25;9.65;;;8.90;99.90;;;;;;5126724;27;20112;-77
2022/04/25 08:51:49;;;;;;;12.73;8.75;;;8.90;99.90;;;;;;5126983;27;20425;-77
2022/04/25 08:54:15;;;;;;;14.23;8.70;;;9.00;99.90;;;;;;5095110;28;20056;-76
2022/04/25 08:56:42;;;;;;;15.77;8.52;;;9.00;99.90;;;;;;5077895;28;20078;-75
2022/04/25 08:59:09;;;;;;;20.38;8.68;;;9.10;99.90;;;;;;5095445;28;20127;-76
2022/04/25 09:01:36;;;;;;;15.60;8.68;;;9.10;99.90;;;;;;5111684;28;20097;-76
2022/04/25 09:04:03;;;;;;;16.90;9.18;;;9.10;99.90;;;;;;5115656;28;20463;-76
2022/04/25 09:06:32;;;;;;;18.90;7.97;;;9.10;99.90;;;;;;5095289;28;20475;-76
2022/04/25 09:09:01;;;;;;;12.07;8.23;;;9.10;99.90;;;;;;5095739;28;20494;-76
2022/04/25 09:14:12;;;;;;;16.83;7.85;;;9.20;99.90;;;;;;5093422;28;20048;-76
2022/04/25 09:16:39;;;;;;;17.35;8.00;;;9.20;99.90;;;;;;5096041;28;20036;-76
2022/04/25 09:19:06;;;;;;;13.18;7.32;;;9.20;99.90;;;;;;5094730;28;20043;-78
2022/04/25 09:21:39;;;;;;;10.60;6.75;;;9.20;99.90;;;;;;5096819;28;20402;-76
2022/04/25 09:24:28;;;;;;;11.68;7.20;;;9.20;99.90;;;;;;5114806;27;20054;-76
2022/04/25 09:27:14;;;;;;;17.88;8.15;;;9.10;99.90;;;;;;5106040;28;20044;-77
2022/04/25 09:29:40;;;;;;;16.25;8.75;;;9.20;99.90;;;;;;5110823;28;20047;-77
2022/04/25 09:32:09;;;;;;;16.67;9.82;;;9.20;99.90;;;;;;5094277;28;20047;-77
2022/04/25 09:37:41;;;;;;;17.77;10.50;;;9.10;99.90;;;;;;5095130;28;20461;-77
2022/04/25 09:40:07;;;;;;;21.48;11.32;;;9.10;99.90;;;;;;5093851;28;20040;-77
2022/04/25 09:42:33;;;;;;;18.70;10.70;;;8.60;99.90;;;;;;5094236;28;20044;-76
2022/04/25 09:45:00;;;;;;;15.73;10.68;;;9.10;99.90;;;;;;5094725;28;20038;-77
2022/04/25 09:47:31;;;;;;;17.42;11.48;;;9.10;99.90;;;;;;5093963;28;20079;-77
2022/04/25 09:50:12;;;;;;;13.02;9.40;;;9.20;99.90;;;;;;5093097;28;20093;-77
2022/04/25 09:52:56;;;;;;;16.63;10.13;;;9.20;99.90;;;;;;5076706;28;20052;-76
2022/04/25 09:55:24;;;;;;;13.63;9.02;;;9.20;99.90;;;;;;5092508;28;20056;-76
2022/04/25 09:57:50;;;;;;;14.93;8.27;;;9.30;99.90;;;;;;5093054;28;20052;-77
2022/04/25 10:00:33;;;;;;;16.05;7.57;;;9.30;99.90;;;;;;5111361;27;20044;-76
2022/04/25 10:03:03;;;;;;;10.52;6.55;;;9.40;99.90;;;;;;5102894;28;20047;-77
2022/04/25 10:05:37;;;;;;;10.98;6.80;;;9.40;99.90;;;;;;5103497;28;20044;-76
2022/04/25 10:08:05;;;;;;;7.70;5.22;;;9.60;99.90;;;;;;5113744;28;20054;-76
2022/04/25 10:10:31;;;;;;;11.30;5.65;;;9.70;99.90;;;;;;5096590;28;20083;-77
2022/04/25 10:12:59;;;;;;;12.93;5.30;;;9.90;99.90;;;;;;5094564;28;20062;-76
2022/04/25 10:15:25;;;;;;;10.77;5.18;;;10.00;99.90;;;;;;5093782;28;20445;-76
2022/04/25 10:17:54;;;;;;;8.30;4.75;;;10.10;99.90;;;;;;5094416;28;20036;-76
2022/04/25 10:20:20;;;;;;;9.38;4.60;;;10.10;99.90;;;;;;5113576;28;20052;-76
2022/04/25 10:22:47;;;;;;;7.70;4.75;;;10.20;99.90;;;;;;5095173;28;20479;-76
2022/04/25 10:25:12;;;;;;;14.57;5.10;;;10.40;99.90;;;;;;5093303;28;20046;-76
2022/04/25 10:27:42;;;;;;;10.93;4.97;;;10.50;99.90;;;;;;5103961;28;20048;-77
2022/04/25 10:30:15;;;;;;;12.40;5.50;;;10.60;99.90;;;;;;5085798;28;20046;-76
2022/04/25 10:32:41;;;;;;;9.77;3.90;;;10.80;99.90;;;;;;5113043;28;20048;-77
2022/04/25 10:35:13;;;;;;;11.00;4.15;;;10.90;99.90;;;;;;5103070;28;20040;-77
2022/04/25 10:37:43;;;;;;;7.57;3.70;;;11.00;99.90;;;;;;5092338;28;20052;-77
2022/04/25 10:40:12;;;;;;;8.82;3.90;;;10.90;99.90;;;;;;5092464;28;20125;-77
2022/04/25 10:45:56;;;;;;;11.93;3.85;;;10.90;99.90;;;;;;5113042;28;20502;-77
2022/04/25 10:48:22;;;;;;;8.50;3.85;;;10.90;99.90;;;;;;5112727;28;20487;-77
2022/04/25 10:51:18;;;;;;;6.32;3.90;;;10.90;99.90;;;;;;5113479;28;20483;-78
2022/04/25 10:53:57;;;;;;;6.25;3.60;;;10.90;99.90;;;;;;5086294;28;20047;-77
2022/04/25 10:56:23;;;;;;;14.30;4.45;;;11.00;99.90;;;;;;5092641;28;20048;-79
2022/04/25 10:59:25;;;;;;;5.85;3.45;;;11.00;99.90;;;;;;5091541;28;20503;-77
2022/04/25 11:01:56;;;;;;;7.28;3.45;;;11.10;99.90;;;;;;5093402;28;20395;-77
2022/04/25 11:04:23;;;;;;;6.35;3.80;;;11.20;99.90;;;;;;5093868;28;20464;-77
2022/04/25 11:07:23;;;;;;;7.25;3.63;;;11.20;99.90;;;;;;5092451;28;20475;-77
2022/04/25 11:09:50;;;;;;;9.05;3.90;;;11.40;99.90;;;;;;5093055;28;20044;-77
2022/04/25 11:12:16;;;;;;;6.07;3.80;;;11.40;99.90;;;;;;5092142;28;20129;-77
2022/04/25 11:15:01;;;;;;;9.38;3.47;;;11.50;99.90;;;;;;5092688;28;20075;-77
2022/04/25 11:17:28;;;;;;;8.35;3.53;;;11.60;99.90;;;;;;5093501;28;20044;-77
2022/04/25 11:19:55;;;;;;;6.97;3.88;;;11.70;99.90;;;;;;5091649;28;20087;-77
2022/04/25 11:22:37;;;;;;;7.55;3.80;;;11.80;99.90;;;;;;5101094;28;20051;-77
2022/04/25 11:25:25;;;;;;;8.55;3.30;;;11.90;99.90;;;;;;5113921;28;20108;-77
2022/04/25 11:28:05;;;;;;;5.35;3.60;;;12.10;99.90;;;;;;5110304;28;20172;-77
2022/04/25 11:30:31;;;;;;;6.60;3.65;;;12.20;99.90;;;;;;5112647;28;20046;-77
2022/04/25 11:33:09;;;;;;;7.50;3.90;;;12.30;99.90;;;;;;5101874;28;20035;-77
2022/04/25 11:35:37;;;;;;;13.40;4.32;;;12.50;99.90;;;;;;5111622;28;20032;-77
2022/04/25 11:38:03;;;;;;;7.18;4.05;;;12.60;99.90;;;;;;5106229;28;20079;-76
2022/04/25 11:40:29;;;;;;;9.85;4.15;;;12.70;99.90;;;;;;5110282;28;20044;-77
2022/04/25 11:43:06;;;;;;;13.30;4.53;;;12.80;99.90;;;;;;5106902;28;20105;-77
2022/04/25 11:45:32;;;;;;;6.15;4.20;;;12.90;99.90;;;;;;5109431;28;20052;-77
2022/04/25 11:48:00;;;;;;;15.43;4.55;;;12.90;99.90;;;;;;5099138;28;20044;-76
2022/04/25 11:50:26;;;;;;;7.50;3.70;;;13.00;99.90;;;;;;5094663;28;20043;-76
2022/04/25 11:52:55;;;;;;;6.07;4.13;;;13.00;99.90;;;;;;5091377;28;20060;-77
2022/04/25 11:55:32;;;;;;;7.13;3.92;;;13.00;99.90;;;;;;5111578;28;20498;-77
2022/04/25 11:57:58;;;;;;;6.47;4.13;;;13.10;99.90;;;;;;5105208;28;20044;-77
2022/04/25 12:00:24;;;;;;;14.18;5.05;;;13.10;99.90;;;;;;5093138;28;20063;-77
2022/04/25 12:02:50;;;;;;;6.50;3.63;;;13.10;99.90;;;;;;5091909;28;20506;-77
2022/04/25 12:05:30;;;;;;;6.28;4.15;;;13.10;99.90;;;;;;5102272;28;20032;-76
2022/04/25 12:16:09;;;;;;;7.03;3.60;;;12.70;99.90;;;;;;5094714;28;20449;-78
2022/04/25 12:18:45;;;;;;;6.60;3.97;;;12.60;99.90;;;;;;5092420;28;20097;-77
2022/04/25 12:21:17;;;;;;;9.45;4.82;;;12.50;99.90;;;;;;5097169;28;20051;-76
2022/04/25 12:23:51;;;;;;;5.95;4.30;;;12.40;99.90;;;;;;5114109;28;20066;-76
2022/04/25 12:26:22;;;;;;;6.18;4.40;;;12.30;99.90;;;;;;5117438;28;20039;-76
2022/04/25 12:28:53;;;;;;;6.80;4.30;;;12.30;99.90;;;;;;5100623;28;20479;-77
2022/04/25 12:31:19;;;;;;;16.75;5.53;;;12.20;99.90;;;;;;5095872;28;20411;-77
2022/04/25 12:33:49;;;;;;;8.55;5.30;;;12.20;99.90;;;;;;5095549;28;20043;-77
2022/04/25 12:36:27;;;;;;;10.18;6.20;;;12.10;99.90;;;;;;5096561;28;20051;-77
2022/04/25 12:39:00;;;;;;;6.05;4.72;;;12.10;99.90;;;;;;5095711;28;20111;-77
2022/04/25 12:41:33;;;;;;;11.82;5.43;;;12.00;99.90;;;;;;5096507;28;20111;-77
2022/04/25 12:44:12;;;;;;;12.97;4.50;;;11.90;99.90;;;;;;5094719;28;20105;-76
2022/04/25 12:46:40;;;;;;;9.50;4.43;;;11.90;99.90;;;;;;5096395;28;20487;-76
2022/04/25 12:49:31;;;;;;;10.20;5.18;;;11.80;99.90;;;;;;5095074;28;20479;-77
2022/04/25 12:51:59;;;;;;;9.70;4.38;;;11.80;99.90;;;;;;5095374;28;20134;-77
2022/04/25 12:54:35;;;;;;;12.30;5.28;;;11.70;99.90;;;;;;5096298;28;20085;-77
2022/04/25 12:57:12;;;;;;;9.57;4.38;;;11.70;99.90;;;;;;5095138;28;20055;-79
2022/04/25 12:59:38;;;;;;;9.60;4.43;;;11.60;99.90;;;;;;5095558;28;20111;-77
2022/04/25 13:02:12;;;;;;;12.10;5.20;;;11.60;99.90;;;;;;5111846;28;20052;-77
2022/04/25 13:04:57;;;;;;;5.63;4.60;;;11.50;99.90;;;;;;5096206;28;20044;-77
2022/04/25 13:07:38;;;;;;;;;;;11.40;99.90;;;;;;5078298;28;20044;-77
2022/04/25 13:10:05;;;;;;;8.45;5.70;;;11.30;99.90;;;;;;5096129;28;19926;-77
2022/04/25 13:12:37;;;;;;;11.00;7.20;;;11.20;99.90;;;;;;5095087;28;20040;-76
2022/04/25 13:15:10;;;;;;;10.82;6.05;;;11.20;99.90;;;;;;5094584;28;20043;-76
2022/04/25 13:17:37;;;;;;;9.25;5.95;;;11.10;99.90;;;;;;5094788;28;20040;-76
2022/04/25 13:20:04;;;;;;;12.68;6.30;;;11.00;99.90;;;;;;5095052;28;20072;-76
2022/04/25 13:22:30;;;;;;;16.23;6.38;;;11.00;99.90;;;;;;5095631;28;20056;-77
2022/04/25 13:24:56;;;;;;;9.32;6.35;;;10.90;99.90;;;;;;5095764;28;20040;-76
2022/04/25 13:27:22;;;;;;;12.90;6.72;;;10.90;99.90;;;;;;5094815;28;20108;-76
2022/04/25 13:29:48;;;;;;;16.63;6.95;;;10.90;99.90;;;;;;5094293;28;20387;-76
2022/04/25 13:32:14;;;;;;;14.10;5.93;;;10.90;99.90;;;;;;5076305;28;20052;-76